createdAt,value
2019-06-10T00:00:55.325Z,22.50
2019-06-10T00:03:22.961Z,22.50
2019-06-10T00:05:51.739Z,22.50
2019-06-10T00:08:20.879Z,22.50
2019-06-10T00:10:50.925Z,22.50
2019-06-10T00:13:17.715Z,22.50
2019-06-10T00:15:45.189Z,22.50
2019-06-10T00:18:34.419Z,22.50
2019-06-10T00:20:41.842Z,22.50
2019-06-10T00:23:11.680Z,22.50
2019-06-10T00:25:40.579Z,22.50
2019-06-10T00:28:08.865Z,22.50
2019-06-10T00:30:36.991Z,22.50
2019-06-10T00:33:05.888Z,22.50
2019-06-10T00:35:33.901Z,22.50
2019-06-10T00:38:02.551Z,22.50
2019-06-10T00:40:31.732Z,22.50
2019-06-10T00:43:00.084Z,22.50
2019-06-10T00:45:28.454Z,22.50
2019-06-10T00:48:07.623Z,22.50
2019-06-10T00:50:25.118Z,22.50
2019-06-10T00:52:52.604Z,22.50
2019-06-10T00:55:21.197Z,22.50
2019-06-10T00:57:50.862Z,22.50
2019-06-10T01:00:25.340Z,22.50
2019-06-10T01:02:47.186Z,22.50
2019-06-10T01:05:15.248Z,22.50
2019-06-10T01:07:42.998Z,22.50
2019-06-10T01:10:12.895Z,22.50
2019-06-10T01:12:40.722Z,22.50
2019-06-10T01:15:09.401Z,22.50
2019-06-10T01:17:37.425Z,22.40
2019-06-10T01:20:05.831Z,22.30
2019-06-10T01:22:33.305Z,22.50
2019-06-10T01:25:01.657Z,22.50
2019-06-10T01:27:31.367Z,22.50
2019-06-10T01:29:58.514Z,22.50
2019-06-10T01:32:25.973Z,22.50
2019-06-10T01:34:53.529Z,22.50
2019-06-10T01:37:21.827Z,22.50
2019-06-10T01:39:51.490Z,22.50
2019-06-10T01:42:18.892Z,22.50
2019-06-10T01:44:46.357Z,22.50
2019-06-10T01:47:14.639Z,22.50
2019-06-10T01:49:43.005Z,22.50
2019-06-10T01:52:12.450Z,22.50
2019-06-10T01:54:41.892Z,22.50
2019-06-10T01:57:11.927Z,22.50
2019-06-10T01:59:38.116Z,22.50
2019-06-10T02:02:07.249Z,22.50
2019-06-10T02:04:34.726Z,22.50
2019-06-10T02:07:02.220Z,22.40
2019-06-10T02:09:30.991Z,22.50
2019-06-10T02:11:58.769Z,22.50
2019-06-10T02:14:26.229Z,22.50
2019-06-10T02:16:54.071Z,22.40
2019-06-10T02:19:22.943Z,22.50
2019-06-10T02:21:51.090Z,22.50
2019-06-10T02:24:19.711Z,22.40
2019-06-10T02:26:47.828Z,22.50
2019-06-10T02:29:16.131Z,22.50
2019-06-10T02:31:44.673Z,22.50
2019-06-10T02:34:15.759Z,22.50
2019-06-10T02:36:44.606Z,22.40
2019-06-10T02:39:13.362Z,22.40
2019-06-10T02:41:39.995Z,22.50
2019-06-10T02:44:07.733Z,22.50
2019-06-10T02:46:36.354Z,22.50
2019-06-10T02:49:20.568Z,22.50
2019-06-10T02:51:35.782Z,22.50
2019-06-10T02:54:04.716Z,22.50
2019-06-10T02:56:36.200Z,22.50
2019-06-10T02:59:03.399Z,22.50
2019-06-10T03:01:34.319Z,22.40
2019-06-10T03:03:59.554Z,22.40
2019-06-10T03:06:33.409Z,22.40
2019-06-10T03:08:56.210Z,22.40
2019-06-10T03:11:29.678Z,22.40
2019-06-10T03:13:53.189Z,22.40
2019-06-10T03:16:37.589Z,22.40
2019-06-10T03:19:05.063Z,22.40
2019-06-10T03:21:32.547Z,22.50
2019-06-10T03:24:02.482Z,22.40
2019-06-10T03:26:29.574Z,22.40
2019-06-10T03:28:57.050Z,22.40
2019-06-10T03:31:33.463Z,22.40
2019-06-10T03:33:54.539Z,22.40
2019-06-10T03:36:23.107Z,22.40
2019-06-10T03:38:53.675Z,22.40
2019-06-10T03:41:22.905Z,22.40
2019-06-10T03:43:49.797Z,22.50
2019-06-10T03:46:17.305Z,22.40
2019-06-10T03:48:44.810Z,22.40
2019-06-10T03:51:12.745Z,22.40
2019-06-10T03:53:42.696Z,22.40
2019-06-10T03:56:09.608Z,22.40
2019-06-10T03:58:37.111Z,22.40
2019-06-10T04:01:04.578Z,22.40
2019-06-10T04:03:33.829Z,22.40
2019-06-10T04:06:02.414Z,22.50
2019-06-10T04:08:32.591Z,22.40
2019-06-10T04:10:59.373Z,22.40
2019-06-10T04:13:28.356Z,22.50
2019-06-10T04:15:57.162Z,22.40
2019-06-10T04:18:26.621Z,22.40
2019-06-10T04:20:54.093Z,22.50
2019-06-10T04:23:23.975Z,22.40
2019-06-10T04:25:52.673Z,22.40
2019-06-10T04:28:19.931Z,22.40
2019-06-10T04:30:47.397Z,22.50
2019-06-10T04:33:14.848Z,22.40
2019-06-10T04:35:42.833Z,22.40
2019-06-10T04:38:12.944Z,22.40
2019-06-10T04:40:39.648Z,22.40
2019-06-10T04:43:07.110Z,22.40
2019-06-10T04:45:34.587Z,22.50
2019-06-10T04:48:03.077Z,22.40
2019-06-10T04:50:37.227Z,22.50
2019-06-10T04:53:02.187Z,22.40
2019-06-10T04:55:29.331Z,22.40
2019-06-10T04:57:56.909Z,22.50
2019-06-10T05:00:27.151Z,22.50
2019-06-10T05:02:53.566Z,22.40
2019-06-10T05:05:23.660Z,22.40
2019-06-10T05:07:52.061Z,22.40
2019-06-10T05:10:19.411Z,22.50
2019-06-10T05:12:46.879Z,22.40
2019-06-10T05:15:14.410Z,22.50
2019-06-10T05:17:43.635Z,22.40
2019-06-10T05:20:12.604Z,22.40
2019-06-10T05:22:42.483Z,22.40
2019-06-10T05:25:09.522Z,22.40
2019-06-10T05:27:36.993Z,22.40
2019-06-10T05:30:07.331Z,22.40
2019-06-10T05:32:34.797Z,22.40
2019-06-10T05:35:03.515Z,22.40
2019-06-10T05:37:33.693Z,22.40
2019-06-10T05:40:02.181Z,22.40
2019-06-10T05:42:31.303Z,22.40
2019-06-10T05:44:58.754Z,22.40
2019-06-10T05:47:28.321Z,22.40
2019-06-10T05:49:55.506Z,22.40
2019-06-10T05:52:24.329Z,22.40
2019-06-10T05:54:52.316Z,22.40
2019-06-10T05:57:19.904Z,22.40
2019-06-10T05:59:47.370Z,22.40
2019-06-10T06:02:14.835Z,22.40
2019-06-10T06:04:42.860Z,22.40
2019-06-10T06:07:12.755Z,22.40
2019-06-10T06:09:39.761Z,22.40
2019-06-10T06:12:07.339Z,22.40
2019-06-10T06:14:36.118Z,22.40
2019-06-10T06:17:03.748Z,22.20
2019-06-10T06:19:35.009Z,22.10
2019-06-10T06:22:02.249Z,22.00
2019-06-10T06:24:29.630Z,21.90
2019-06-10T06:26:57.162Z,21.80
2019-06-10T06:29:24.618Z,21.80
2019-06-10T06:31:52.458Z,21.80
2019-06-10T06:34:22.525Z,21.80
2019-06-10T06:36:49.703Z,21.80
2019-06-10T06:39:17.246Z,21.80
2019-06-10T06:41:44.717Z,21.70
2019-06-10T06:44:12.917Z,21.70
2019-06-10T06:46:42.991Z,21.70
2019-06-10T06:49:12.260Z,21.70
2019-06-10T06:51:54.019Z,21.70
2019-06-10T06:54:09.525Z,21.70
2019-06-10T06:56:38.871Z,21.80
2019-06-10T06:59:06.186Z,21.90
2019-06-10T07:01:36.466Z,21.90
2019-06-10T07:04:03.110Z,22.00
2019-06-10T07:06:32.900Z,22.00
2019-06-10T07:09:05.482Z,22.00
2019-06-10T07:11:31.157Z,22.10
2019-06-10T07:13:59.149Z,22.10
2019-06-10T07:16:26.614Z,22.10
2019-06-10T07:18:54.267Z,22.20
2019-06-10T07:21:22.809Z,22.10
2019-06-10T07:23:52.571Z,22.20
2019-06-10T07:26:22.016Z,22.20
2019-06-10T07:28:48.870Z,22.20
2019-06-10T07:31:24.099Z,22.20
2019-06-10T07:33:47.315Z,22.20
2019-06-10T07:36:14.794Z,22.20
2019-06-10T07:38:47.055Z,22.20
2019-06-10T07:41:12.561Z,22.20
2019-06-10T07:43:46.194Z,22.30
2019-06-10T07:46:09.636Z,22.30
2019-06-10T07:48:39.556Z,22.30
2019-06-10T07:51:06.612Z,22.30
2019-06-10T07:53:36.335Z,22.30
2019-06-10T07:56:03.858Z,22.30
2019-06-10T07:58:33.377Z,22.30
2019-06-10T08:01:02.602Z,22.30
2019-06-10T08:03:30.150Z,22.30
2019-06-10T08:05:57.618Z,22.30
2019-06-10T08:08:25.166Z,22.30
2019-06-10T08:10:53.030Z,22.20
2019-06-10T08:13:22.524Z,22.20
2019-06-10T08:15:49.790Z,22.10
2019-06-10T08:18:17.261Z,22.10
2019-06-10T08:20:47.976Z,22.00
2019-06-10T08:23:18.857Z,22.00
2019-06-10T08:25:52.990Z,22.10
2019-06-10T08:28:15.506Z,22.20
2019-06-10T08:30:45.900Z,22.20
2019-06-10T08:33:13.707Z,22.20
2019-06-10T08:35:48.368Z,22.20
2019-06-10T08:38:12.429Z,22.30
2019-06-10T08:40:40.652Z,22.20
2019-06-10T08:43:09.040Z,22.30
2019-06-10T08:45:36.897Z,22.30
2019-06-10T08:48:23.907Z,22.30
2019-06-10T08:50:53.046Z,22.40
2019-06-10T08:53:22.740Z,22.40
2019-06-10T08:55:50.274Z,22.40
2019-06-10T08:58:18.343Z,22.40
2019-06-10T09:00:49.052Z,22.30
2019-06-10T09:03:15.018Z,22.30
2019-06-10T09:05:47.416Z,22.30
2019-06-10T09:08:13.003Z,22.30
2019-06-10T09:10:42.238Z,22.30
2019-06-10T09:13:09.970Z,22.30
2019-06-10T09:15:38.763Z,22.30
2019-06-10T09:18:06.742Z,22.40
2019-06-10T09:20:34.209Z,22.40
2019-06-10T09:23:17.856Z,22.40
2019-06-10T09:25:33.365Z,22.30
2019-06-10T09:28:02.238Z,22.40
2019-06-10T09:30:29.261Z,22.40
2019-06-10T09:33:00.116Z,22.40
2019-06-10T09:35:25.921Z,22.30
2019-06-10T09:37:55.670Z,22.40
2019-06-10T09:40:24.809Z,22.30
2019-06-10T09:42:54.769Z,22.40
2019-06-10T09:45:22.378Z,22.40
2019-06-10T09:47:57.939Z,22.40
2019-06-10T09:50:22.715Z,22.40
2019-06-10T09:52:53.396Z,22.40
2019-06-10T09:55:23.259Z,22.40
2019-06-10T09:57:58.481Z,22.40
2019-06-10T10:00:37.558Z,22.30
2019-06-10T10:03:05.026Z,22.30
2019-06-10T10:05:33.822Z,22.30
2019-06-10T10:08:01.359Z,22.30
2019-06-10T10:10:35.895Z,22.40
2019-06-10T10:13:03.817Z,22.30
2019-06-10T10:15:34.430Z,22.40
2019-06-10T10:18:02.458Z,22.40
2019-06-10T10:20:29.761Z,22.30
2019-06-10T10:22:58.021Z,22.40
2019-06-10T10:25:25.510Z,22.40
2019-06-10T10:27:57.239Z,22.40
2019-06-10T10:30:25.368Z,22.30
2019-06-10T10:32:54.058Z,22.40
2019-06-10T10:35:24.109Z,22.40
2019-06-10T10:37:53.860Z,22.40
2019-06-10T10:40:23.293Z,22.40
2019-06-10T10:42:58.713Z,22.40
2019-06-10T10:45:22.518Z,22.40
2019-06-10T10:47:51.827Z,22.40
2019-06-10T10:50:19.022Z,22.40
2019-06-10T10:52:48.199Z,22.40
2019-06-10T10:55:15.666Z,22.40
2019-06-10T10:57:43.245Z,22.40
2019-06-10T11:00:14.512Z,22.40
2019-06-10T11:02:43.154Z,22.40
2019-06-10T11:05:12.764Z,22.40
2019-06-10T11:07:42.275Z,22.40
2019-06-10T11:10:09.610Z,22.40
2019-06-10T11:12:37.087Z,22.40
2019-06-10T11:15:05.256Z,22.40
2019-06-10T11:17:33.643Z,22.40
2019-06-10T11:20:03.698Z,22.40
2019-06-10T11:22:32.747Z,22.40
2019-06-10T11:24:59.705Z,22.40
2019-06-10T11:27:27.175Z,22.40
2019-06-10T11:29:57.356Z,22.40
2019-06-10T11:32:23.842Z,22.40
2019-06-10T11:34:55.527Z,22.40
2019-06-10T11:37:22.983Z,22.40
2019-06-10T11:39:50.200Z,22.40
2019-06-10T11:42:17.846Z,22.40
2019-06-10T11:44:46.341Z,22.40
2019-06-10T11:47:13.872Z,22.40
2019-06-10T11:49:43.460Z,22.40
2019-06-10T11:52:12.584Z,22.40
2019-06-10T11:54:53.619Z,22.40
2019-06-10T11:57:08.971Z,22.40
2019-06-10T11:59:36.438Z,22.40
2019-06-10T12:02:05.913Z,22.40
2019-06-10T12:04:33.142Z,22.40
2019-06-10T12:07:02.332Z,22.50
2019-06-10T12:09:29.956Z,22.40
2019-06-10T12:12:01.412Z,22.50
2019-06-10T12:14:27.286Z,22.40
2019-06-10T12:19:24.166Z,22.40
2019-06-10T12:21:55.687Z,22.40
2019-06-10T12:24:23.050Z,22.40
2019-06-10T12:26:50.038Z,22.40
2019-06-10T12:29:17.523Z,22.40
2019-06-10T12:31:44.971Z,22.40
2019-06-10T12:34:12.706Z,22.40
2019-06-10T12:36:40.198Z,22.50
2019-06-10T12:39:10.958Z,22.40
2019-06-10T12:41:37.626Z,22.40
2019-06-10T12:44:05.274Z,22.40
2019-06-10T12:46:32.868Z,22.50
2019-06-10T12:49:05.910Z,22.40
2019-06-10T12:51:29.572Z,22.40
2019-06-10T12:53:57.396Z,22.40
2019-06-10T12:56:25.065Z,22.50
2019-06-10T12:58:55.266Z,22.40
2019-06-10T13:01:22.017Z,22.50
2019-06-10T13:03:49.514Z,22.40
2019-06-10T13:06:17.532Z,22.40
2019-06-10T13:08:46.089Z,22.40
2019-06-10T13:11:14.898Z,22.50
2019-06-10T13:13:43.021Z,22.40
2019-06-10T13:16:14.149Z,22.50
2019-06-10T13:18:39.962Z,22.50
2019-06-10T13:21:13.456Z,22.50
2019-06-10T13:23:36.630Z,22.40
2019-06-10T13:26:10.434Z,22.40
2019-06-10T13:28:33.295Z,22.40
2019-06-10T13:31:04.261Z,22.40
2019-06-10T13:33:30.017Z,22.40
2019-06-10T13:35:58.696Z,22.40
2019-06-10T13:38:27.530Z,22.40
2019-06-10T13:40:55.181Z,22.40
2019-06-10T13:43:23.281Z,22.40
2019-06-10T13:45:53.015Z,22.50
2019-06-10T13:48:20.115Z,22.40
2019-06-10T13:50:47.585Z,22.50
2019-06-10T13:53:15.054Z,22.40
2019-06-10T13:55:42.520Z,22.40
2019-06-10T13:58:11.675Z,22.40
2019-06-10T14:00:45.295Z,22.50
2019-06-10T14:03:10.268Z,22.40
2019-06-10T14:05:37.680Z,22.40
2019-06-10T14:08:08.654Z,22.40
2019-06-10T14:10:34.397Z,22.40
2019-06-10T14:13:03.963Z,22.40
2019-06-10T14:15:32.917Z,22.50
2019-06-10T14:18:01.787Z,22.50
2019-06-10T14:20:29.532Z,22.40
2019-06-10T14:22:57.075Z,22.40
2019-06-10T14:25:24.534Z,22.40
2019-06-10T14:27:53.198Z,22.40
2019-06-10T14:30:22.940Z,22.40
2019-06-10T14:32:50.094Z,22.50
2019-06-10T14:35:17.736Z,22.50
2019-06-10T14:37:45.422Z,22.50
2019-06-10T14:40:20.091Z,22.50
2019-06-10T14:42:42.957Z,22.50
2019-06-10T14:45:11.370Z,22.50
2019-06-10T14:47:39.757Z,22.50
2019-06-10T14:50:08.813Z,22.50
2019-06-10T14:52:36.332Z,22.50
2019-06-10T14:55:05.252Z,22.50
2019-06-10T14:57:33.424Z,22.50
2019-06-10T15:00:03.001Z,22.50
2019-06-10T15:02:30.326Z,22.50
2019-06-10T15:04:57.786Z,22.50
2019-06-10T15:07:25.501Z,22.50
2019-06-10T15:09:53.041Z,22.50
2019-06-10T15:12:22.612Z,22.50
2019-06-10T15:14:52.006Z,22.50
2019-06-10T15:17:19.053Z,22.50
2019-06-10T15:19:46.563Z,22.50
2019-06-10T15:22:15.343Z,22.50
2019-06-10T15:24:43.209Z,22.50
2019-06-10T15:27:19.253Z,22.50
2019-06-10T15:29:39.881Z,22.50
2019-06-10T15:32:17.143Z,22.60
2019-06-10T15:34:36.545Z,22.50
2019-06-10T15:37:04.020Z,22.40
2019-06-10T15:39:33.322Z,22.40
2019-06-10T15:42:02.840Z,22.30
2019-06-10T15:44:47.920Z,22.30
2019-06-10T15:46:59.106Z,22.30
2019-06-10T15:49:26.576Z,22.20
2019-06-10T15:51:54.054Z,22.10
2019-06-10T15:54:25.129Z,22.20
2019-06-10T15:56:56.169Z,22.10
2019-06-10T15:59:19.901Z,22.10
2019-06-10T16:01:47.362Z,22.00
2019-06-10T16:04:17.226Z,22.00
2019-06-10T16:06:44.014Z,22.00
2019-06-10T16:09:13.062Z,22.00
2019-06-10T16:11:43.373Z,22.00
2019-06-10T16:14:09.881Z,21.90
2019-06-10T16:16:37.349Z,21.90
2019-06-10T16:19:04.858Z,21.90
2019-06-10T16:21:32.399Z,21.90
2019-06-10T16:24:02.567Z,21.90
2019-06-10T16:26:29.156Z,21.80
2019-06-10T16:28:56.617Z,21.80
2019-06-10T16:31:27.148Z,21.80
2019-06-10T16:33:53.288Z,21.80
2019-06-10T16:36:21.818Z,21.80
2019-06-10T16:38:49.940Z,21.80
2019-06-10T16:41:17.585Z,21.80
2019-06-10T16:43:45.167Z,21.80
2019-06-10T16:46:12.700Z,21.80
2019-06-10T16:48:40.163Z,21.90
2019-06-10T16:51:07.630Z,22.00
2019-06-10T16:53:35.805Z,22.00
2019-06-10T16:56:03.557Z,22.10
2019-06-10T16:58:33.199Z,22.10
2019-06-10T17:01:02.955Z,22.10
2019-06-10T17:03:31.352Z,22.10
2019-06-10T17:05:58.739Z,22.20
2019-06-10T17:08:28.101Z,22.20
2019-06-10T17:10:55.404Z,22.20
2019-06-10T17:13:26.790Z,22.30
2019-06-10T17:15:53.943Z,22.30
2019-06-10T17:18:24.575Z,22.30
2019-06-10T17:20:53.271Z,22.30
2019-06-10T17:23:23.642Z,22.30
2019-06-10T17:25:53.295Z,22.30
2019-06-10T17:28:39.758Z,22.30
2019-06-10T17:31:07.222Z,22.40
2019-06-10T17:33:35.631Z,22.30
2019-06-10T17:36:03.760Z,22.30
2019-06-10T17:38:31.587Z,22.30
2019-06-10T17:40:59.053Z,22.40
2019-06-10T17:43:27.305Z,22.40
2019-06-10T17:45:54.971Z,22.30
2019-06-10T17:48:24.183Z,22.40
2019-06-10T17:50:52.451Z,22.40
2019-06-10T17:53:20.330Z,22.30
2019-06-10T17:55:47.822Z,22.40
2019-06-10T17:58:29.346Z,22.40
2019-06-10T18:00:44.759Z,22.30
2019-06-10T18:03:13.161Z,22.30
2019-06-10T18:05:42.562Z,22.40
2019-06-10T18:08:09.959Z,22.40
2019-06-10T18:10:37.762Z,22.40
2019-06-10T18:13:14.019Z,22.40
2019-06-10T18:15:36.751Z,22.40
2019-06-10T18:18:03.698Z,22.40
2019-06-10T18:20:33.551Z,22.40
2019-06-10T18:23:02.736Z,22.40
2019-06-10T18:25:30.850Z,22.40
2019-06-10T18:27:58.898Z,22.50
2019-06-10T18:30:27.244Z,22.40
2019-06-10T18:32:54.816Z,22.40
2019-06-10T18:35:22.483Z,22.40
2019-06-10T18:37:50.164Z,22.40
2019-06-10T18:40:17.641Z,22.40
2019-06-10T18:42:45.109Z,22.50
2019-06-10T18:45:13.069Z,22.40
2019-06-10T18:47:42.308Z,22.40
2019-06-10T18:50:12.580Z,22.40
2019-06-10T18:52:39.406Z,22.40
2019-06-10T18:55:07.351Z,22.40
2019-06-10T18:57:36.279Z,22.40
2019-06-10T19:00:11.911Z,22.40
2019-06-10T19:02:38.583Z,22.40
2019-06-10T19:05:09.389Z,22.40
2019-06-10T19:07:38.342Z,22.40
2019-06-10T19:10:06.893Z,22.40
2019-06-10T19:12:36.607Z,22.40
2019-06-10T19:15:06.508Z,22.40
2019-06-10T19:17:36.706Z,22.40
2019-06-10T19:20:04.598Z,22.40
2019-06-10T19:22:34.073Z,22.50
2019-06-10T19:25:03.727Z,22.40
2019-06-10T19:27:31.293Z,22.40
2019-06-10T19:29:59.653Z,22.50
2019-06-10T19:32:27.124Z,22.50
2019-06-10T19:34:54.689Z,22.50
2019-06-10T19:37:22.251Z,22.50
2019-06-10T19:39:53.768Z,22.50
2019-06-10T19:42:19.110Z,22.40
2019-06-10T19:44:46.577Z,22.50
2019-06-10T19:47:14.202Z,22.50
2019-06-10T19:49:43.621Z,22.50
2019-06-10T19:52:12.039Z,22.50
2019-06-10T19:54:41.705Z,22.50
2019-06-10T19:57:08.897Z,22.50
2019-06-10T19:59:53.759Z,22.50
2019-06-10T20:02:08.683Z,22.50
2019-06-10T20:04:36.095Z,22.50
2019-06-10T20:07:03.890Z,22.40
2019-06-10T20:09:32.922Z,22.50
2019-06-10T20:12:02.190Z,22.50
2019-06-10T20:14:32.136Z,22.40
2019-06-10T20:16:59.080Z,22.40
2019-06-10T20:19:26.574Z,22.50
2019-06-10T20:21:54.016Z,22.40
2019-06-10T20:24:22.345Z,22.40
2019-06-10T20:26:52.720Z,22.40
2019-06-10T20:29:19.170Z,22.50
2019-06-10T20:31:47.546Z,22.50
2019-06-10T20:34:16.274Z,22.40
2019-06-10T20:36:46.592Z,22.50
2019-06-10T20:39:14.385Z,22.40
2019-06-10T20:41:47.291Z,22.40
2019-06-10T20:44:13.088Z,22.50
2019-06-10T20:46:42.639Z,22.40
2019-06-10T20:49:09.530Z,22.50
2019-06-10T20:51:54.513Z,22.50
2019-06-10T20:54:06.758Z,22.50
2019-06-10T20:56:34.266Z,22.40
2019-06-10T20:59:02.850Z,22.40
2019-06-10T21:01:33.054Z,22.50
2019-06-10T21:04:02.804Z,22.50
2019-06-10T21:06:29.289Z,22.40
2019-06-10T21:08:56.753Z,22.50
2019-06-10T21:11:24.218Z,22.50
2019-06-10T21:13:53.137Z,22.50
2019-06-10T21:16:22.980Z,22.50
2019-06-10T21:18:53.115Z,22.50
2019-06-10T21:21:19.264Z,22.40
2019-06-10T21:23:47.602Z,22.50
2019-06-10T21:26:15.460Z,22.50
2019-06-10T21:28:45.544Z,22.50
2019-06-10T21:31:12.112Z,22.50
2019-06-10T21:33:43.790Z,22.50
2019-06-10T21:36:09.114Z,22.50
2019-06-10T21:38:36.602Z,22.40
2019-06-10T21:41:04.121Z,22.50
2019-06-10T21:43:33.072Z,22.50
2019-06-10T21:46:03.334Z,22.50
2019-06-10T21:48:32.230Z,22.40
2019-06-10T21:50:59.326Z,22.50
2019-06-10T21:53:26.788Z,22.50
2019-06-10T21:55:55.279Z,22.50
2019-06-10T21:58:22.876Z,22.50
2019-06-10T22:01:00.898Z,22.50
2019-06-10T22:03:19.889Z,22.40
2019-06-10T22:05:47.534Z,22.40
2019-06-10T22:08:15.098Z,22.40
2019-06-10T22:10:44.090Z,22.50
2019-06-10T22:13:12.331Z,22.40
2019-06-10T22:15:42.256Z,22.50
2019-06-10T22:18:09.145Z,22.50
2019-06-10T22:20:36.625Z,22.40
2019-06-10T22:23:04.097Z,22.50
2019-06-10T22:25:32.785Z,22.50
2019-06-10T22:28:02.820Z,22.50
2019-06-10T22:30:31.949Z,22.50
2019-06-10T22:32:59.100Z,22.40
2019-06-10T22:35:26.561Z,22.40
2019-06-10T22:37:55.442Z,22.50
2019-06-10T22:40:23.580Z,22.50
2019-06-10T22:42:53.619Z,22.50
2019-06-10T22:45:20.237Z,22.40
2019-06-10T22:47:47.714Z,22.50
2019-06-10T22:50:15.174Z,22.40
2019-06-10T22:52:42.706Z,22.50
2019-06-10T22:55:12.821Z,22.50
2019-06-10T22:57:39.502Z,22.40
2019-06-10T23:00:08.874Z,22.50
2019-06-10T23:02:36.343Z,22.50
2019-06-10T23:05:05.568Z,22.40
2019-06-10T23:07:33.233Z,22.50
2019-06-10T23:10:03.065Z,22.40
2019-06-10T23:12:29.893Z,22.50
2019-06-10T23:14:57.798Z,22.40
2019-06-10T23:17:25.721Z,22.50
2019-06-10T23:19:53.948Z,22.50
2019-06-10T23:22:22.378Z,22.50
2019-06-10T23:24:49.846Z,22.50
2019-06-10T23:27:17.301Z,22.40
2019-06-10T23:29:44.769Z,22.50
2019-06-10T23:32:12.955Z,22.50
2019-06-10T23:34:42.273Z,22.40
2019-06-10T23:37:12.398Z,22.50
2019-06-10T23:39:39.109Z,22.50
2019-06-10T23:42:06.571Z,22.50
2019-06-10T23:44:34.048Z,22.50
2019-06-10T23:47:03.642Z,22.50
2019-06-10T23:49:32.281Z,22.50
2019-06-10T23:52:00.947Z,22.50
2019-06-10T23:54:29.128Z,22.40
2019-06-10T23:56:56.657Z,22.40
2019-06-10T23:59:24.245Z,22.40
